Terminal Aerodrome Forecast
Issued by NWS

Home | Current Version | Previous Version | Text Only | Print | Product List | Glossary On
Versions: 1 2 3 4 5 6 7 8 9 10 11 12 13 14 15 16 17 18 19 20 21 22 23 24 25 26 27 28
000
FTUS42 KJAX 021730
TAFVQQ
TAF
KVQQ 021730Z 0218/0318 19012G22KT P6SM -SHRA BKN030
      TEMPO 0218/0219 2SM -SHRA BR BKN018
     FM021900 19012G22KT P6SM VCTS BKN040CB
      TEMPO 0219/0223 3SM -TSRA BR BKN030CB
     FM030200 15010KT P6SM SCT030 SCT250
     FM030900 19010KT 5SM BR BKN015
     FM031600 25011KT P6SM VCTS BKN025CB=

USA.gov is the U.S. government's official web portal to all federal, state and local government web resources and services.